Time;durP1;ratioP1;P1;durP2;ratioP2;P2;SDS_P1;SDS_P2;PMS_P1;PMS_P2;Temp;Humidity;BMP_temperature;BMP_pressure;BME280_temperature;BME280_humidity;BME280_pressure;Samples;Min_cycle;Max_cycle;Signal;HPM_P1;HPM_P2
2022/01/26 01:15:55;;;;;;;;;;;2.80;99.90;;;;;;6196340;23;19923;-90
2022/01/26 12:03:23;;;;;;;;;;;4.10;99.90;;;;;;6237334;22;19934;-87
2022/01/26 12:06:20;;;;;;;;;;;4.10;99.90;;;;;;6184051;23;19966;-87
2022/01/26 12:09:10;;;;;;;;;;;4.20;99.90;;;;;;6196948;23;19947;-86
2022/01/26 12:45:08;;;;;;;;;;;4.20;99.90;;;;;;6125345;23;19979;-87
2022/01/26 12:47:37;;;;;;;;;;;4.30;99.90;;;;;;6101757;23;19956;-86
2022/01/26 12:50:03;;;;;;;;;;;4.30;99.90;;;;;;6172302;23;20398;-85
2022/01/26 12:52:29;;;;;;;;;;;4.30;99.90;;;;;;6188196;23;19921;-88
2022/01/26 12:55:01;;;;;;;;;;;4.30;99.90;;;;;;6188967;23;19919;-85
2022/01/26 12:57:33;;;;;;;;;;;4.30;99.90;;;;;;6187146;23;20303;-86
2022/01/26 13:00:18;;;;;;;;;;;4.30;99.90;;;;;;6189573;23;19915;-87
2022/01/26 13:02:53;;;;;;;;;;;4.30;99.90;;;;;;6164352;23;19969;-86
2022/01/26 13:05:41;;;;;;;;;;;4.20;99.90;;;;;;6164427;23;19924;-88
2022/01/26 13:08:16;;;;;;;;;;;4.30;99.90;;;;;;6188129;23;19915;-86
2022/01/26 13:13:56;;;;;;;;;;;4.30;99.90;;;;;;6189057;23;19927;-86
2022/01/26 14:04:54;;;;;;;;;;;4.40;99.90;;;;;;6117805;23;19923;-86
2022/01/26 14:07:34;;;;;;;;;;;4.40;99.90;;;;;;6158155;23;19946;-87
2022/01/26 14:20:18;;;;;;;;;;;4.50;99.90;;;;;;6102293;23;19919;-86
2022/01/26 14:29:22;;;;;;;;;;;4.50;99.90;;;;;;6096087;23;19995;-85
2022/01/26 14:35:48;;;;;;;;;;;4.50;99.90;;;;;;6016029;23;19926;-86
2022/01/26 16:16:31;;;;;;;;;;;4.80;99.90;;;;;;6186286;23;19962;-88
2022/01/26 18:15:46;;;;;;;;;;;5.10;99.90;;;;;;6181795;23;19920;-87
2022/01/26 18:32:56;;;;;;;;;;;5.20;99.90;;;;;;6184242;23;19911;-89
2022/01/26 18:49:11;;;;;;;;;;;5.20;99.90;;;;;;6178178;23;20184;-87
2022/01/26 18:49:53;;;;;;;;;;;5.20;99.90;;;;;;6164328;23;19911;-86
2022/01/26 18:52:21;;;;;;;;;;;5.30;99.90;;;;;;6156083;23;19915;-86
2022/01/26 18:54:47;;;;;;;;;;;5.30;99.90;;;;;;6129749;23;19916;-87
2022/01/26 18:57:22;;;;;;;;;;;5.30;99.90;;;;;;6132001;23;19919;-88
2022/01/26 18:59:47;;;;;;;;;;;5.30;99.90;;;;;;6158493;23;20241;-86
2022/01/26 19:02:16;;;;;;;;;;;5.40;99.90;;;;;;6156567;23;19958;-88
2022/01/26 19:07:35;;;;;;;;;;;5.40;99.90;;;;;;6137582;23;20316;-88
2022/01/26 19:10:09;;;;;;;;;;;5.40;99.90;;;;;;6155195;23;19965;-87
2022/01/26 19:12:37;;;;;;;;;;;5.40;99.90;;;;;;6130311;23;19991;-87
2022/01/26 19:15:15;;;;;;;;;;;5.40;99.90;;;;;;6158512;23;19916;-87
2022/01/26 19:18:00;;;;;;;;;;;5.50;99.90;;;;;;6156368;23;20298;-87
2022/01/26 19:26:36;;;;;;;;;;;5.50;99.90;;;;;;6145958;23;20248;-89
2022/01/26 19:52:11;;;;;;;;;;;5.50;99.90;;;;;;6183131;23;20309;-87
2022/01/26 19:54:49;;;;;;;;;;;5.50;99.90;;;;;;6153555;23;20212;-85
2022/01/26 19:57:18;;;;;;;;;;;5.50;99.90;;;;;;6155220;23;19938;-87
2022/01/26 19:59:44;;;;;;;;;;;5.50;99.90;;;;;;6152791;23;20225;-88
2022/01/26 20:02:10;;;;;;;;;;;5.50;99.90;;;;;;6154090;23;19918;-85
2022/01/26 20:04:36;;;;;;;;;;;5.40;99.90;;;;;;6178494;23;19920;-89
2022/01/26 20:07:08;;;;;;;;;;;5.50;99.90;;;;;;6154574;23;19938;-88
2022/01/26 20:10:04;;;;;;;;;;;5.40;99.90;;;;;;6159248;23;19983;-84
2022/01/26 20:15:10;;;;;;;;;;;5.40;99.90;;;;;;6184049;23;20360;-84
2022/01/26 20:17:42;;;;;;;;;;;5.40;99.90;;;;;;6160552;23;19920;-87
2022/01/26 20:20:08;;;;;;;;;;;5.40;99.90;;;;;;6152254;23;20142;-86
2022/01/26 20:22:34;;;;;;;;;;;5.40;99.90;;;;;;6148423;23;19911;-87
2022/01/26 20:25:00;;;;;;;;;;;5.40;99.90;;;;;;6127717;23;20246;-88
2022/01/26 20:27:39;;;;;;;;;;;;;;;;;;;;;
2022/01/26 20:30:15;;;;;;;;;;;5.30;99.90;;;;;;6198488;23;20351;-85
2022/01/26 20:32:55;;;;;;;;;;;5.40;99.90;;;;;;6177745;23;19934;-87
2022/01/26 20:35:26;;;;;;;;;;;5.30;99.90;;;;;;6128498;23;19995;-85
2022/01/26 20:38:01;;;;;;;;;;;5.40;99.90;;;;;;6131994;23;19994;-86
2022/01/26 20:40:33;;;;;;;;;;;5.30;99.90;;;;;;6155444;23;20260;-87
2022/01/26 20:48:40;;;;;;;;;;;5.30;99.90;;;;;;6238455;23;20237;-88
2022/01/26 20:51:24;;;;;;;;;;;5.40;99.90;;;;;;6200682;23;19915;-87
2022/01/26 20:53:57;;;;;;;;;;;5.30;99.90;;;;;;6162480;23;19919;-89
2022/01/26 20:56:36;;;;;;;;;;;5.40;99.90;;;;;;6184524;23;19911;-87
2022/01/26 20:59:24;;;;;;;;;;;5.40;99.90;;;;;;6182975;23;20399;-85
2022/01/26 21:01:50;;;;;;;;;;;5.40;99.90;;;;;;6184924;23;20398;-87
2022/01/26 21:04:19;;;;;;;;;;;5.40;99.90;;;;;;6160668;23;19919;-88
2022/01/26 21:06:44;;;;;;;;;;;5.40;99.90;;;;;;6185789;23;19916;-86
2022/01/26 21:09:16;;;;;;;;;;;5.40;99.90;;;;;;6160914;23;20325;-88
2022/01/26 21:11:52;;;;;;;;;;;5.40;99.90;;;;;;6184227;23;19915;-87
2022/01/26 21:14:18;;;;;;;;;;;5.40;99.90;;;;;;6185683;23;19915;-85
2022/01/26 21:16:46;;;;;;;;;;;5.40;99.90;;;;;;6188683;23;20005;-87
2022/01/26 21:19:12;;;;;;;;;;;5.40;99.90;;;;;;6187207;23;19919;-85
2022/01/26 21:21:37;;;;;;;;;;;5.30;99.90;;;;;;6185160;23;19911;-87
2022/01/26 21:24:03;;;;;;;;;;;5.40;99.90;;;;;;6203715;23;19916;-86
2022/01/26 21:26:29;;;;;;;;;;;5.30;99.90;;;;;;6160462;23;19943;-87
2022/01/26 21:29:01;;;;;;;;;;;5.30;99.90;;;;;;6164305;23;19912;-86
2022/01/26 21:34:15;;;;;;;;;;;5.40;99.90;;;;;;6204812;23;19919;-86
2022/01/26 21:36:41;;;;;;;;;;;5.30;99.90;;;;;;6154773;23;19916;-84
2022/01/26 21:39:20;;;;;;;;;;;5.30;99.90;;;;;;6180554;23;19923;-86
2022/01/26 21:41:46;;;;;;;;;;;5.30;99.90;;;;;;6175447;23;20263;-86
2022/01/26 21:44:18;;;;;;;;;;;5.30;99.90;;;;;;6181807;23;19912;-87
2022/01/26 21:46:47;;;;;;;;;;;5.30;99.90;;;;;;6157493;23;19911;-88
2022/01/26 21:49:13;;;;;;;;;;;5.30;99.90;;;;;;6183453;23;20312;-86
2022/01/26 21:52:02;;;;;;;;;;;5.30;99.90;;;;;;6181731;23;20257;-88
2022/01/26 21:54:48;;;;;;;;;;;5.30;99.90;;;;;;6180413;23;19955;-87
2022/01/26 21:57:14;;;;;;;;;;;5.30;99.90;;;;;;6179673;23;19916;-87
2022/01/26 21:59:40;;;;;;;;;;;5.30;99.90;;;;;;6179907;23;19991;-87
2022/01/26 22:02:06;;;;;;;;;;;5.30;99.90;;;;;;6176647;23;20017;-86
2022/01/26 22:04:37;;;;;;;;;;;5.30;99.90;;;;;;6202995;23;20227;-87
2022/01/26 22:07:03;;;;;;;;;;;5.30;99.90;;;;;;6155566;23;19915;-87
2022/01/26 22:09:35;;;;;;;;;;;5.30;99.90;;;;;;6179066;23;19942;-87
2022/01/26 22:12:02;;;;;;;;;;;5.30;99.90;;;;;;6180150;23;20131;-87
2022/01/26 22:14:28;;;;;;;;;;;5.30;99.90;;;;;;6180960;23;19912;-88
2022/01/26 22:16:54;;;;;;;;;;;5.30;99.90;;;;;;6182285;23;20201;-87
2022/01/26 22:19:25;;;;;;;;;;;5.30;99.90;;;;;;6155867;23;19939;-86
2022/01/26 22:22:13;;;;;;;;;;;5.30;99.90;;;;;;6180211;23;19946;-85
2022/01/26 22:24:41;;;;;;;;;;;5.30;99.90;;;;;;6209896;22;19922;-88
2022/01/26 22:27:07;;;;;;;;;;;5.40;99.90;;;;;;6186001;23;19942;-86
2022/01/26 22:29:33;;;;;;;;;;;5.30;99.90;;;;;;6162685;23;19915;-88
2022/01/26 22:32:00;;;;;;;;;;;5.40;99.90;;;;;;6185070;23;19916;-87
2022/01/26 22:34:30;;;;;;;;;;;5.30;99.90;;;;;;6185114;23;19966;-86
2022/01/26 22:37:08;;;;;;;;;;;5.30;99.90;;;;;;6215237;23;19915;-86
2022/01/26 22:40:06;;;;;;;;;;;5.30;99.90;;;;;;6188922;23;19927;-86
2022/01/26 22:42:35;;;;;;;;;;;5.40;99.90;;;;;;6184892;23;20328;-86
2022/01/26 22:45:04;;;;;;;;;;;5.30;99.90;;;;;;6186860;23;19998;-85
2022/01/26 22:47:43;;;;;;;;;;;5.30;99.90;;;;;;6184460;23;20354;-88
2022/01/26 22:50:24;;;;;;;;;;;5.30;99.90;;;;;;6186130;23;19915;-86
2022/01/26 22:53:02;;;;;;;;;;;5.30;99.90;;;;;;6184552;23;19966;-86
2022/01/26 22:55:31;;;;;;;;;;;5.30;99.90;;;;;;6180001;23;19951;-87
2022/01/26 22:58:06;;;;;;;;;;;5.30;99.90;;;;;;6185495;23;19926;-86
2022/01/26 23:01:23;;;;;;;;;;;5.20;99.90;;;;;;6186107;23;19912;-87
2022/01/26 23:03:52;;;;;;;;;;;5.30;99.90;;;;;;6184042;23;19915;-87
2022/01/26 23:06:24;;;;;;;;;;;5.30;99.90;;;;;;6186684;23;20244;-85
2022/01/26 23:08:55;;;;;;;;;;;5.40;99.90;;;;;;6186467;23;19950;-85
2022/01/26 23:11:25;;;;;;;;;;;5.40;99.90;;;;;;6184363;23;19915;-86
2022/01/26 23:13:51;;;;;;;;;;;5.40;99.90;;;;;;6183982;23;19912;-85
2022/01/26 23:16:46;;;;;;;;;;;5.40;99.90;;;;;;6184471;23;19919;-86
2022/01/26 23:19:17;;;;;;;;;;;5.40;99.90;;;;;;6185390;23;19916;-87
2022/01/26 23:21:44;;;;;;;;;;;5.40;99.90;;;;;;6184217;23;20270;-86
2022/01/26 23:24:12;;;;;;;;;;;5.40;99.90;;;;;;6185923;23;20213;-84
2022/01/26 23:26:47;;;;;;;;;;;5.40;99.90;;;;;;6184782;23;19937;-86
2022/01/26 23:34:43;;;;;;;;;;;5.30;99.90;;;;;;6209380;23;19977;-89
2022/01/26 23:39:54;;;;;;;;;;;5.30;99.90;;;;;;6209495;23;19912;-85
